sensor_id;sensor_type;location;lat;lon;timestamp;temperature;humidity
71627;DHT22;59475;52.464;13.590;2022-07-06T00:02:15;16.61;60.70
71627;DHT22;59475;52.464;13.590;2022-07-06T00:04:41;16.59;60.73
71627;DHT22;59475;52.464;13.590;2022-07-06T00:07:06;16.56;60.94
71627;DHT22;59475;52.464;13.590;2022-07-06T00:09:33;16.56;61.01
71627;DHT22;59475;52.464;13.590;2022-07-06T00:11:58;16.56;61.00
71627;DHT22;59475;52.464;13.590;2022-07-06T00:14:24;16.61;61.25
71627;DHT22;59475;52.464;13.590;2022-07-06T00:16:49;16.62;61.24
71627;DHT22;59475;52.464;13.590;2022-07-06T00:19:15;16.59;61.22
71627;DHT22;59475;52.464;13.590;2022-07-06T00:21:40;16.58;61.44
71627;DHT22;59475;52.464;13.590;2022-07-06T00:24:06;16.55;61.55
71627;DHT22;59475;52.464;13.590;2022-07-06T00:26:31;16.56;61.78
71627;DHT22;59475;52.464;13.590;2022-07-06T00:28:56;16.49;62.01
71627;DHT22;59475;52.464;13.590;2022-07-06T00:31:22;16.45;62.37
71627;DHT22;59475;52.464;13.590;2022-07-06T00:33:47;16.41;62.41
71627;DHT22;59475;52.464;13.590;2022-07-06T00:36:12;16.38;62.82
71627;DHT22;59475;52.464;13.590;2022-07-06T00:38:38;16.31;63.00
71627;DHT22;59475;52.464;13.590;2022-07-06T00:41:03;16.27;63.22
71627;DHT22;59475;52.464;13.590;2022-07-06T00:43:29;16.25;63.41
71627;DHT22;59475;52.464;13.590;2022-07-06T00:46:11;16.22;63.61
71627;DHT22;59475;52.464;13.590;2022-07-06T00:48:36;16.24;63.71
71627;DHT22;59475;52.464;13.590;2022-07-06T00:51:01;16.22;63.81
71627;DHT22;59475;52.464;13.590;2022-07-06T00:53:27;16.22;63.95
71627;DHT22;59475;52.464;13.590;2022-07-06T00:55:52;16.21;63.87
71627;DHT22;59475;52.464;13.590;2022-07-06T00:58:17;16.21;64.02
71627;DHT22;59475;52.464;13.590;2022-07-06T01:00:43;16.22;64.04
71627;DHT22;59475;52.464;13.590;2022-07-06T01:03:09;16.16;64.16
71627;DHT22;59475;52.464;13.590;2022-07-06T01:05:35;16.06;64.58
71627;DHT22;59475;52.464;13.590;2022-07-06T01:08:00;15.99;64.65
71627;DHT22;59475;52.464;13.590;2022-07-06T01:10:26;16.00;64.81
71627;DHT22;59475;52.464;13.590;2022-07-06T01:12:51;15.96;64.85
71627;DHT22;59475;52.464;13.590;2022-07-06T01:15:22;15.91;65.00
71627;DHT22;59475;52.464;13.590;2022-07-06T01:17:48;15.90;65.07
71627;DHT22;59475;52.464;13.590;2022-07-06T01:20:14;15.85;65.05
71627;DHT22;59475;52.464;13.590;2022-07-06T01:22:40;15.83;65.03
71627;DHT22;59475;52.464;13.590;2022-07-06T01:25:07;15.83;65.28
71627;DHT22;59475;52.464;13.590;2022-07-06T01:27:34;15.83;65.21
71627;DHT22;59475;52.464;13.590;2022-07-06T01:30:04;15.80;65.73
71627;DHT22;59475;52.464;13.590;2022-07-06T01:32:29;15.79;66.36
71627;DHT22;59475;52.464;13.590;2022-07-06T01:34:55;15.76;65.83
71627;DHT22;59475;52.464;13.590;2022-07-06T01:37:20;15.73;65.83
71627;DHT22;59475;52.464;13.590;2022-07-06T01:39:45;15.69;65.94
71627;DHT22;59475;52.464;13.590;2022-07-06T01:42:10;15.62;66.65
71627;DHT22;59475;52.464;13.590;2022-07-06T01:44:36;15.56;66.60
71627;DHT22;59475;52.464;13.590;2022-07-06T01:47:01;15.56;66.83
71627;DHT22;59475;52.464;13.590;2022-07-06T01:49:27;15.51;66.99
71627;DHT22;59475;52.464;13.590;2022-07-06T01:51:52;15.49;66.60
71627;DHT22;59475;52.464;13.590;2022-07-06T01:54:17;15.48;66.63
71627;DHT22;59475;52.464;13.590;2022-07-06T01:56:43;15.46;66.57
71627;DHT22;59475;52.464;13.590;2022-07-06T01:59:08;15.48;66.74
71627;DHT22;59475;52.464;13.590;2022-07-06T02:01:35;15.48;66.99
71627;DHT22;59475;52.464;13.590;2022-07-06T02:04:00;15.51;67.13
71627;DHT22;59475;52.464;13.590;2022-07-06T02:06:25;15.55;67.51
71627;DHT22;59475;52.464;13.590;2022-07-06T02:08:51;15.56;67.44
71627;DHT22;59475;52.464;13.590;2022-07-06T02:11:17;15.55;67.15
71627;DHT22;59475;52.464;13.590;2022-07-06T02:13:42;15.59;66.64
71627;DHT22;59475;52.464;13.590;2022-07-06T02:16:07;15.63;66.49
71627;DHT22;59475;52.464;13.590;2022-07-06T02:18:33;15.66;66.30
71627;DHT22;59475;52.464;13.590;2022-07-06T02:20:59;15.70;66.00
71627;DHT22;59475;52.464;13.590;2022-07-06T02:23:24;15.78;65.31
71627;DHT22;59475;52.464;13.590;2022-07-06T02:25:51;15.86;64.47
71627;DHT22;59475;52.464;13.590;2022-07-06T02:28:16;15.93;64.52
71627;DHT22;59475;52.464;13.590;2022-07-06T02:30:42;15.97;64.16
71627;DHT22;59475;52.464;13.590;2022-07-06T02:33:07;16.01;64.38
71627;DHT22;59475;52.464;13.590;2022-07-06T02:35:32;16.08;63.67
71627;DHT22;59475;52.464;13.590;2022-07-06T02:37:58;16.16;63.76
71627;DHT22;59475;52.464;13.590;2022-07-06T02:40:23;16.16;65.12
71627;DHT22;59475;52.464;13.590;2022-07-06T02:42:48;16.11;65.76
71627;DHT22;59475;52.464;13.590;2022-07-06T02:45:14;16.03;66.02
71627;DHT22;59475;52.464;13.590;2022-07-06T02:47:39;15.99;66.43
71627;DHT22;59475;52.464;13.590;2022-07-06T02:50:05;15.94;66.81
71627;DHT22;59475;52.464;13.590;2022-07-06T02:52:31;15.91;66.37
71627;DHT22;59475;52.464;13.590;2022-07-06T02:54:56;15.85;66.51
71627;DHT22;59475;52.464;13.590;2022-07-06T02:57:22;15.86;66.83
71627;DHT22;59475;52.464;13.590;2022-07-06T02:59:47;15.83;66.98
71627;DHT22;59475;52.464;13.590;2022-07-06T03:02:17;15.76;67.75
71627;DHT22;59475;52.464;13.590;2022-07-06T03:04:42;15.76;68.43
71627;DHT22;59475;52.464;13.590;2022-07-06T03:07:08;15.70;68.87
71627;DHT22;59475;52.464;13.590;2022-07-06T03:09:34;15.65;69.06
71627;DHT22;59475;52.464;13.590;2022-07-06T03:11:59;15.53;69.87
71627;DHT22;59475;52.464;13.590;2022-07-06T03:14:25;15.45;70.55
71627;DHT22;59475;52.464;13.590;2022-07-06T03:16:51;15.45;71.08
71627;DHT22;59475;52.464;13.590;2022-07-06T03:19:16;15.34;71.98
71627;DHT22;59475;52.464;13.590;2022-07-06T03:21:42;15.32;72.60
71627;DHT22;59475;52.464;13.590;2022-07-06T03:24:07;15.24;73.28
71627;DHT22;59475;52.464;13.590;2022-07-06T03:26:32;15.24;73.48
71627;DHT22;59475;52.464;13.590;2022-07-06T03:28:58;15.24;73.74
71627;DHT22;59475;52.464;13.590;2022-07-06T03:31:23;15.21;73.94
71627;DHT22;59475;52.464;13.590;2022-07-06T03:33:49;15.25;73.96
71627;DHT22;59475;52.464;13.590;2022-07-06T03:36:14;15.34;73.89
71627;DHT22;59475;52.464;13.590;2022-07-06T03:38:40;15.38;73.77
71627;DHT22;59475;52.464;13.590;2022-07-06T03:41:09;15.45;73.79
71627;DHT22;59475;52.464;13.590;2022-07-06T03:43:34;15.46;74.07
71627;DHT22;59475;52.464;13.590;2022-07-06T03:46:00;15.49;74.74
71627;DHT22;59475;52.464;13.590;2022-07-06T03:48:25;15.42;75.35
71627;DHT22;59475;52.464;13.590;2022-07-06T03:50:50;15.36;77.16
71627;DHT22;59475;52.464;13.590;2022-07-06T03:53:16;15.31;77.30
71627;DHT22;59475;52.464;13.590;2022-07-06T03:55:41;15.27;76.18
71627;DHT22;59475;52.464;13.590;2022-07-06T03:58:07;15.28;76.69
71627;DHT22;59475;52.464;13.590;2022-07-06T04:00:32;15.28;75.58
71627;DHT22;59475;52.464;13.590;2022-07-06T04:03:02;15.25;75.84
71627;DHT22;59475;52.464;13.590;2022-07-06T04:05:27;15.25;76.09
71627;DHT22;59475;52.464;13.590;2022-07-06T04:07:52;15.28;75.75
71627;DHT22;59475;52.464;13.590;2022-07-06T04:10:18;15.31;75.36
71627;DHT22;59475;52.464;13.590;2022-07-06T04:12:44;15.34;74.34
71627;DHT22;59475;52.464;13.590;2022-07-06T04:15:11;15.34;74.17
71627;DHT22;59475;52.464;13.590;2022-07-06T04:17:37;15.35;74.07
71627;DHT22;59475;52.464;13.590;2022-07-06T04:20:19;15.32;74.10
71627;DHT22;59475;52.464;13.590;2022-07-06T04:22:45;15.38;73.76
71627;DHT22;59475;52.464;13.590;2022-07-06T04:25:10;15.39;73.69
71627;DHT22;59475;52.464;13.590;2022-07-06T04:27:35;15.44;74.17
71627;DHT22;59475;52.464;13.590;2022-07-06T04:30:02;15.51;74.00
71627;DHT22;59475;52.464;13.590;2022-07-06T04:32:28;15.53;73.84
71627;DHT22;59475;52.464;13.590;2022-07-06T04:34:53;15.59;73.46
71627;DHT22;59475;52.464;13.590;2022-07-06T04:37:18;15.67;72.89
71627;DHT22;59475;52.464;13.590;2022-07-06T04:39:44;15.78;73.11
71627;DHT22;59475;52.464;13.590;2022-07-06T04:42:09;15.76;71.08
71627;DHT22;59475;52.464;13.590;2022-07-06T04:44:34;15.83;71.23
71627;DHT22;59475;52.464;13.590;2022-07-06T04:47:00;15.89;71.87
71627;DHT22;59475;52.464;13.590;2022-07-06T04:49:25;15.91;71.74
71627;DHT22;59475;52.464;13.590;2022-07-06T04:51:50;15.76;71.70
71627;DHT22;59475;52.464;13.590;2022-07-06T04:54:16;15.72;71.84
71627;DHT22;59475;52.464;13.590;2022-07-06T04:56:41;15.69;71.47
71627;DHT22;59475;52.464;13.590;2022-07-06T04:59:06;15.65;71.58
71627;DHT22;59475;52.464;13.590;2022-07-06T05:01:32;15.67;71.46
71627;DHT22;59475;52.464;13.590;2022-07-06T05:03:57;15.69;71.76
71627;DHT22;59475;52.464;13.590;2022-07-06T05:06:22;15.79;71.40
71627;DHT22;59475;52.464;13.590;2022-07-06T05:08:48;15.96;69.54
71627;DHT22;59475;52.464;13.590;2022-07-06T05:11:13;16.06;68.13
71627;DHT22;59475;52.464;13.590;2022-07-06T05:13:38;16.24;67.49
71627;DHT22;59475;52.464;13.590;2022-07-06T05:16:04;16.44;67.60
71627;DHT22;59475;52.464;13.590;2022-07-06T05:18:30;16.55;66.69
71627;DHT22;59475;52.464;13.590;2022-07-06T05:20:55;16.54;66.48
71627;DHT22;59475;52.464;13.590;2022-07-06T05:23:21;16.55;66.04
71627;DHT22;59475;52.464;13.590;2022-07-06T05:25:46;16.69;65.81
71627;DHT22;59475;52.464;13.590;2022-07-06T05:28:11;16.73;65.59
71627;DHT22;59475;52.464;13.590;2022-07-06T05:30:37;16.73;65.25
71627;DHT22;59475;52.464;13.590;2022-07-06T05:33:02;16.77;65.43
71627;DHT22;59475;52.464;13.590;2022-07-06T05:35:28;16.80;65.33
71627;DHT22;59475;52.464;13.590;2022-07-06T05:37:54;16.77;65.71
71627;DHT22;59475;52.464;13.590;2022-07-06T05:40:19;16.77;65.75
71627;DHT22;59475;52.464;13.590;2022-07-06T05:42:44;16.62;66.14
71627;DHT22;59475;52.464;13.590;2022-07-06T05:45:10;16.58;65.69
71627;DHT22;59475;52.464;13.590;2022-07-06T05:47:35;16.66;65.18
71627;DHT22;59475;52.464;13.590;2022-07-06T05:50:19;16.76;64.39
71627;DHT22;59475;52.464;13.590;2022-07-06T05:52:56;16.80;63.40
71627;DHT22;59475;52.464;13.590;2022-07-06T05:55:22;16.80;63.67
71627;DHT22;59475;52.464;13.590;2022-07-06T05:57:47;17.06;63.15
71627;DHT22;59475;52.464;13.590;2022-07-06T06:00:13;17.30;62.12
71627;DHT22;59475;52.464;13.590;2022-07-06T06:02:40;17.40;60.87
71627;DHT22;59475;52.464;13.590;2022-07-06T06:05:07;17.28;60.86
71627;DHT22;59475;52.464;13.590;2022-07-06T06:07:37;17.38;60.66
71627;DHT22;59475;52.464;13.590;2022-07-06T06:10:08;17.35;60.62
71627;DHT22;59475;52.464;13.590;2022-07-06T06:12:34;17.51;60.62
71627;DHT22;59475;52.464;13.590;2022-07-06T06:15:00;17.62;60.44
71627;DHT22;59475;52.464;13.590;2022-07-06T06:17:26;17.79;60.07
71627;DHT22;59475;52.464;13.590;2022-07-06T06:19:51;17.99;59.31
71627;DHT22;59475;52.464;13.590;2022-07-06T06:22:16;17.97;58.65
71627;DHT22;59475;52.464;13.590;2022-07-06T06:24:42;17.86;58.94
71627;DHT22;59475;52.464;13.590;2022-07-06T06:27:07;18.09;57.92
71627;DHT22;59475;52.464;13.590;2022-07-06T06:29:33;18.29;57.75
71627;DHT22;59475;52.464;13.590;2022-07-06T06:31:59;18.51;57.73
71627;DHT22;59475;52.464;13.590;2022-07-06T06:34:24;18.81;57.58
71627;DHT22;59475;52.464;13.590;2022-07-06T06:36:50;19.02;55.88
71627;DHT22;59475;52.464;13.590;2022-07-06T06:39:16;18.89;55.56
71627;DHT22;59475;52.464;13.590;2022-07-06T06:41:41;18.96;56.34
71627;DHT22;59475;52.464;13.590;2022-07-06T06:44:07;18.73;55.99
71627;DHT22;59475;52.464;13.590;2022-07-06T06:46:32;19.27;55.24
71627;DHT22;59475;52.464;13.590;2022-07-06T06:48:58;19.53;54.61
71627;DHT22;59475;52.464;13.590;2022-07-06T06:51:23;19.63;53.70
71627;DHT22;59475;52.464;13.590;2022-07-06T06:53:48;19.79;53.50
71627;DHT22;59475;52.464;13.590;2022-07-06T06:56:14;19.75;54.11
71627;DHT22;59475;52.464;13.590;2022-07-06T06:58:39;20.00;52.94
71627;DHT22;59475;52.464;13.590;2022-07-06T07:01:04;20.23;51.75
71627;DHT22;59475;52.464;13.590;2022-07-06T07:03:30;20.43;51.66
71627;DHT22;59475;52.464;13.590;2022-07-06T07:05:56;20.36;52.02
71627;DHT22;59475;52.464;13.590;2022-07-06T07:08:21;20.78;51.32
71627;DHT22;59475;52.464;13.590;2022-07-06T07:10:47;21.22;49.76
71627;DHT22;59475;52.464;13.590;2022-07-06T07:13:12;20.65;49.73
71627;DHT22;59475;52.464;13.590;2022-07-06T07:15:38;20.26;51.03
71627;DHT22;59475;52.464;13.590;2022-07-06T07:18:03;19.60;51.76
71627;DHT22;59475;52.464;13.590;2022-07-06T07:20:29;19.64;52.61
71627;DHT22;59475;52.464;13.590;2022-07-06T07:22:55;19.78;52.78
71627;DHT22;59475;52.464;13.590;2022-07-06T07:25:21;20.15;50.46
71627;DHT22;59475;52.464;13.590;2022-07-06T07:27:46;20.92;50.03
71627;DHT22;59475;52.464;13.590;2022-07-06T07:30:11;21.56;48.72
71627;DHT22;59475;52.464;13.590;2022-07-06T07:32:37;20.99;47.92
71627;DHT22;59475;52.464;13.590;2022-07-06T07:35:05;21.29;48.09
71627;DHT22;59475;52.464;13.590;2022-07-06T07:37:31;21.35;47.67
71627;DHT22;59475;52.464;13.590;2022-07-06T07:39:56;21.30;47.87
71627;DHT22;59475;52.464;13.590;2022-07-06T07:42:22;21.45;47.89
71627;DHT22;59475;52.464;13.590;2022-07-06T07:44:47;21.64;47.41
71627;DHT22;59475;52.464;13.590;2022-07-06T07:47:13;22.33;45.77
71627;DHT22;59475;52.464;13.590;2022-07-06T07:49:38;22.48;46.21
71627;DHT22;59475;52.464;13.590;2022-07-06T07:52:03;22.22;44.83
71627;DHT22;59475;52.464;13.590;2022-07-06T07:54:29;21.66;46.04
71627;DHT22;59475;52.464;13.590;2022-07-06T07:56:54;21.43;46.58
71627;DHT22;59475;52.464;13.590;2022-07-06T07:59:19;21.43;47.76
71627;DHT22;59475;52.464;13.590;2022-07-06T08:01:45;21.30;47.32
71627;DHT22;59475;52.464;13.590;2022-07-06T08:04:10;21.02;46.39
71627;DHT22;59475;52.464;13.590;2022-07-06T08:06:35;20.46;46.52
71627;DHT22;59475;52.464;13.590;2022-07-06T08:09:01;20.74;46.43
71627;DHT22;59475;52.464;13.590;2022-07-06T08:11:28;21.13;47.10
71627;DHT22;59475;52.464;13.590;2022-07-06T08:13:54;21.64;43.82
71627;DHT22;59475;52.464;13.590;2022-07-06T08:16:19;21.66;43.96
71627;DHT22;59475;52.464;13.590;2022-07-06T08:18:44;22.59;43.03
71627;DHT22;59475;52.464;13.590;2022-07-06T08:21:10;21.68;42.69
71627;DHT22;59475;52.464;13.590;2022-07-06T08:23:36;21.03;43.97
71627;DHT22;59475;52.464;13.590;2022-07-06T08:26:02;20.75;45.04
71627;DHT22;59475;52.464;13.590;2022-07-06T08:28:28;20.68;46.27
71627;DHT22;59475;52.464;13.590;2022-07-06T08:30:53;20.32;46.38
71627;DHT22;59475;52.464;13.590;2022-07-06T08:33:20;20.15;46.64
71627;DHT22;59475;52.464;13.590;2022-07-06T08:35:45;19.60;46.85
71627;DHT22;59475;52.464;13.590;2022-07-06T08:38:10;19.49;47.80
71627;DHT22;59475;52.464;13.590;2022-07-06T08:40:38;19.57;48.00
71627;DHT22;59475;52.464;13.590;2022-07-06T08:43:04;19.47;47.76
71627;DHT22;59475;52.464;13.590;2022-07-06T08:45:30;19.85;47.52
71627;DHT22;59475;52.464;13.590;2022-07-06T08:47:59;19.98;46.18
71627;DHT22;59475;52.464;13.590;2022-07-06T08:50:28;19.83;46.57
71627;DHT22;59475;52.464;13.590;2022-07-06T08:52:54;19.82;47.11
71627;DHT22;59475;52.464;13.590;2022-07-06T08:55:19;19.78;47.38
71627;DHT22;59475;52.464;13.590;2022-07-06T08:57:46;19.75;47.76
71627;DHT22;59475;52.464;13.590;2022-07-06T09:00:12;19.77;47.26
71627;DHT22;59475;52.464;13.590;2022-07-06T09:02:40;19.98;47.28
71627;DHT22;59475;52.464;13.590;2022-07-06T09:05:06;19.86;47.77
71627;DHT22;59475;52.464;13.590;2022-07-06T09:07:33;19.96;46.66
71627;DHT22;59475;52.464;13.590;2022-07-06T09:09:59;19.95;47.29
71627;DHT22;59475;52.464;13.590;2022-07-06T09:12:28;19.92;46.50
71627;DHT22;59475;52.464;13.590;2022-07-06T09:14:55;19.98;44.92
71627;DHT22;59475;52.464;13.590;2022-07-06T09:17:25;19.79;44.27
71627;DHT22;59475;52.464;13.590;2022-07-06T09:19:51;19.83;44.56
71627;DHT22;59475;52.464;13.590;2022-07-06T09:22:30;19.64;44.07
71627;DHT22;59475;52.464;13.590;2022-07-06T09:25:14;19.28;44.39
71627;DHT22;59475;52.464;13.590;2022-07-06T09:27:41;19.16;44.19
71627;DHT22;59475;52.464;13.590;2022-07-06T09:30:09;19.30;44.65
71627;DHT22;59475;52.464;13.590;2022-07-06T09:32:42;19.37;43.89
71627;DHT22;59475;52.464;13.590;2022-07-06T09:37:46;19.65;43.57
71627;DHT22;59475;52.464;13.590;2022-07-06T09:40:17;19.83;42.56
71627;DHT22;59475;52.464;13.590;2022-07-06T09:42:44;20.10;42.41
71627;DHT22;59475;52.464;13.590;2022-07-06T09:45:10;20.15;42.13
71627;DHT22;59475;52.464;13.590;2022-07-06T09:47:36;20.36;41.67
71627;DHT22;59475;52.464;13.590;2022-07-06T09:50:05;20.12;41.69
71627;DHT22;59475;52.464;13.590;2022-07-06T09:52:34;20.39;41.44
71627;DHT22;59475;52.464;13.590;2022-07-06T09:54:59;20.81;40.17
71627;DHT22;59475;52.464;13.590;2022-07-06T09:57:24;20.63;38.93
71627;DHT22;59475;52.464;13.590;2022-07-06T09:59:50;20.67;38.85
71627;DHT22;59475;52.464;13.590;2022-07-06T10:02:16;20.50;39.28
71627;DHT22;59475;52.464;13.590;2022-07-06T10:04:43;20.58;39.82
71627;DHT22;59475;52.464;13.590;2022-07-06T10:07:09;20.37;40.30
71627;DHT22;59475;52.464;13.590;2022-07-06T10:09:37;20.47;40.10
71627;DHT22;59475;52.464;13.590;2022-07-06T10:12:03;20.56;40.96
71627;DHT22;59475;52.464;13.590;2022-07-06T10:14:33;20.68;40.27
71627;DHT22;59475;52.464;13.590;2022-07-06T10:17:01;20.61;40.55
71627;DHT22;59475;52.464;13.590;2022-07-06T10:19:29;20.50;40.36
71627;DHT22;59475;52.464;13.590;2022-07-06T10:21:58;20.56;42.54
71627;DHT22;59475;52.464;13.590;2022-07-06T10:24:24;20.47;41.10
71627;DHT22;59475;52.464;13.590;2022-07-06T10:26:49;20.41;40.71
71627;DHT22;59475;52.464;13.590;2022-07-06T10:29:15;20.48;41.38
71627;DHT22;59475;52.464;13.590;2022-07-06T10:31:44;20.63;40.82
71627;DHT22;59475;52.464;13.590;2022-07-06T10:34:12;20.67;42.01
71627;DHT22;59475;52.464;13.590;2022-07-06T10:36:41;20.84;40.83
71627;DHT22;59475;52.464;13.590;2022-07-06T10:39:06;20.48;41.87
71627;DHT22;59475;52.464;13.590;2022-07-06T10:41:50;20.36;42.20
71627;DHT22;59475;52.464;13.590;2022-07-06T10:44:17;20.10;42.15
71627;DHT22;59475;52.464;13.590;2022-07-06T10:46:53;19.96;41.60
71627;DHT22;59475;52.464;13.590;2022-07-06T10:49:20;19.93;41.69
71627;DHT22;59475;52.464;13.590;2022-07-06T10:51:46;20.22;42.06
71627;DHT22;59475;52.464;13.590;2022-07-06T10:54:11;21.05;41.85
71627;DHT22;59475;52.464;13.590;2022-07-06T10:56:49;21.12;41.82
71627;DHT22;59475;52.464;13.590;2022-07-06T10:59:17;21.40;41.54
71627;DHT22;59475;52.464;13.590;2022-07-06T11:02:14;21.67;40.05
71627;DHT22;59475;52.464;13.590;2022-07-06T11:04:45;21.85;41.41
71627;DHT22;59475;52.464;13.590;2022-07-06T11:07:13;21.93;40.74
71627;DHT22;59475;52.464;13.590;2022-07-06T11:09:39;21.49;39.95
71627;DHT22;59475;52.464;13.590;2022-07-06T11:12:19;21.40;39.06
71627;DHT22;59475;52.464;13.590;2022-07-06T11:14:47;21.42;40.67
71627;DHT22;59475;52.464;13.590;2022-07-06T11:17:13;21.40;39.82
71627;DHT22;59475;52.464;13.590;2022-07-06T11:19:48;21.93;39.18
71627;DHT22;59475;52.464;13.590;2022-07-06T11:22:15;22.57;38.41
71627;DHT22;59475;52.464;13.590;2022-07-06T11:24:41;22.71;36.93
71627;DHT22;59475;52.464;13.590;2022-07-06T11:27:07;22.80;37.59
71627;DHT22;59475;52.464;13.590;2022-07-06T11:29:33;22.64;38.96
71627;DHT22;59475;52.464;13.590;2022-07-06T11:32:05;22.19;39.47
71627;DHT22;59475;52.464;13.590;2022-07-06T11:34:35;22.09;39.69
71627;DHT22;59475;52.464;13.590;2022-07-06T11:37:04;22.52;38.92
71627;DHT22;59475;52.464;13.590;2022-07-06T11:39:35;22.81;37.97
71627;DHT22;59475;52.464;13.590;2022-07-06T11:42:02;22.91;37.35
71627;DHT22;59475;52.464;13.590;2022-07-06T11:44:29;22.74;38.49
71627;DHT22;59475;52.464;13.590;2022-07-06T11:46:54;21.68;40.03
71627;DHT22;59475;52.464;13.590;2022-07-06T11:49:21;21.49;41.04
71627;DHT22;59475;52.464;13.590;2022-07-06T11:51:47;21.33;41.67
71627;DHT22;59475;52.464;13.590;2022-07-06T11:54:13;20.99;42.75
71627;DHT22;59475;52.464;13.590;2022-07-06T11:56:46;20.84;43.12
71627;DHT22;59475;52.464;13.590;2022-07-06T11:59:12;21.01;43.39
71627;DHT22;59475;52.464;13.590;2022-07-06T12:01:37;20.90;43.05
71627;DHT22;59475;52.464;13.590;2022-07-06T12:04:07;21.12;43.01
71627;DHT22;59475;52.464;13.590;2022-07-06T12:06:33;21.39;42.17
71627;DHT22;59475;52.464;13.590;2022-07-06T12:09:00;21.91;39.89
71627;DHT22;59475;52.464;13.590;2022-07-06T12:11:31;22.16;39.95
71627;DHT22;59475;52.464;13.590;2022-07-06T12:13:58;22.21;39.10
71627;DHT22;59475;52.464;13.590;2022-07-06T12:16:35;22.19;38.93
71627;DHT22;59475;52.464;13.590;2022-07-06T12:19:03;21.87;39.58
71627;DHT22;59475;52.464;13.590;2022-07-06T12:21:29;21.94;39.15
71627;DHT22;59475;52.464;13.590;2022-07-06T12:23:55;22.14;39.09
71627;DHT22;59475;52.464;13.590;2022-07-06T12:26:26;21.77;39.34
71627;DHT22;59475;52.464;13.590;2022-07-06T12:29:05;22.12;38.92
71627;DHT22;59475;52.464;13.590;2022-07-06T12:31:36;21.98;38.87
71627;DHT22;59475;52.464;13.590;2022-07-06T12:34:03;21.68;40.08
71627;DHT22;59475;52.464;13.590;2022-07-06T12:36:28;22.14;40.29
71627;DHT22;59475;52.464;13.590;2022-07-06T12:38:54;21.73;39.80
71627;DHT22;59475;52.464;13.590;2022-07-06T12:44:21;21.87;41.20
71627;DHT22;59475;52.464;13.590;2022-07-06T12:46:48;21.59;41.01
71627;DHT22;59475;52.464;13.590;2022-07-06T12:49:19;21.47;40.45
71627;DHT22;59475;52.464;13.590;2022-07-06T12:51:53;21.36;40.78
71627;DHT22;59475;52.464;13.590;2022-07-06T12:54:19;21.36;41.92
71627;DHT22;59475;52.464;13.590;2022-07-06T12:57:05;21.46;41.73
71627;DHT22;59475;52.464;13.590;2022-07-06T12:59:34;21.97;41.07
71627;DHT22;59475;52.464;13.590;2022-07-06T13:01:59;22.21;40.91
71627;DHT22;59475;52.464;13.590;2022-07-06T13:04:27;22.64;39.41
71627;DHT22;59475;52.464;13.590;2022-07-06T13:06:53;22.02;40.43
71627;DHT22;59475;52.464;13.590;2022-07-06T13:09:19;22.26;40.81
71627;DHT22;59475;52.464;13.590;2022-07-06T13:11:48;21.91;40.69
71627;DHT22;59475;52.464;13.590;2022-07-06T13:14:17;21.98;41.60
71627;DHT22;59475;52.464;13.590;2022-07-06T13:16:44;21.90;40.38
71627;DHT22;59475;52.464;13.590;2022-07-06T13:19:09;22.18;40.06
71627;DHT22;59475;52.464;13.590;2022-07-06T13:21:35;22.14;40.32
71627;DHT22;59475;52.464;13.590;2022-07-06T13:24:01;22.16;40.31
71627;DHT22;59475;52.464;13.590;2022-07-06T13:26:26;21.73;41.14
71627;DHT22;59475;52.464;13.590;2022-07-06T13:28:52;21.54;41.24
71627;DHT22;59475;52.464;13.590;2022-07-06T13:31:17;21.29;41.72
71627;DHT22;59475;52.464;13.590;2022-07-06T13:33:43;21.53;41.74
71627;DHT22;59475;52.464;13.590;2022-07-06T13:36:08;21.28;42.27
71627;DHT22;59475;52.464;13.590;2022-07-06T13:38:33;21.61;42.06
71627;DHT22;59475;52.464;13.590;2022-07-06T13:40:59;22.01;41.75
71627;DHT22;59475;52.464;13.590;2022-07-06T13:43:24;22.00;39.84
71627;DHT22;59475;52.464;13.590;2022-07-06T13:45:49;21.45;40.08
71627;DHT22;59475;52.464;13.590;2022-07-06T13:48:15;21.36;40.66
71627;DHT22;59475;52.464;13.590;2022-07-06T13:50:40;21.88;40.61
71627;DHT22;59475;52.464;13.590;2022-07-06T13:53:06;21.71;40.39
71627;DHT22;59475;52.464;13.590;2022-07-06T13:55:32;21.54;39.86
71627;DHT22;59475;52.464;13.590;2022-07-06T13:57:57;21.54;41.04
71627;DHT22;59475;52.464;13.590;2022-07-06T14:00:23;21.83;40.61
71627;DHT22;59475;52.464;13.590;2022-07-06T14:02:48;21.81;39.73
71627;DHT22;59475;52.464;13.590;2022-07-06T14:05:13;22.12;41.11
71627;DHT22;59475;52.464;13.590;2022-07-06T14:07:39;21.94;39.68
71627;DHT22;59475;52.464;13.590;2022-07-06T14:10:05;22.08;39.62
71627;DHT22;59475;52.464;13.590;2022-07-06T14:12:30;22.11;39.76
71627;DHT22;59475;52.464;13.590;2022-07-06T14:14:56;21.95;38.67
71627;DHT22;59475;52.464;13.590;2022-07-06T14:17:21;21.91;37.84
71627;DHT22;59475;52.464;13.590;2022-07-06T14:19:48;21.93;38.27
71627;DHT22;59475;52.464;13.590;2022-07-06T14:22:13;22.12;38.99
71627;DHT22;59475;52.464;13.590;2022-07-06T14:24:39;22.28;38.41
71627;DHT22;59475;52.464;13.590;2022-07-06T14:27:04;22.29;37.97
71627;DHT22;59475;52.464;13.590;2022-07-06T14:29:29;22.16;39.06
71627;DHT22;59475;52.464;13.590;2022-07-06T14:31:55;22.33;39.07
71627;DHT22;59475;52.464;13.590;2022-07-06T14:34:20;22.45;38.41
71627;DHT22;59475;52.464;13.590;2022-07-06T14:36:45;22.35;38.38
71627;DHT22;59475;52.464;13.590;2022-07-06T14:39:11;22.22;36.21
71627;DHT22;59475;52.464;13.590;2022-07-06T14:41:40;22.01;36.19
71627;DHT22;59475;52.464;13.590;2022-07-06T14:44:05;21.93;36.57
71627;DHT22;59475;52.464;13.590;2022-07-06T14:46:31;22.02;37.74
71627;DHT22;59475;52.464;13.590;2022-07-06T14:48:57;22.08;38.16
71627;DHT22;59475;52.464;13.590;2022-07-06T14:51:22;22.14;37.66
71627;DHT22;59475;52.464;13.590;2022-07-06T14:53:47;22.25;38.87
71627;DHT22;59475;52.464;13.590;2022-07-06T14:56:13;21.98;38.58
71627;DHT22;59475;52.464;13.590;2022-07-06T14:58:38;21.73;38.97
71627;DHT22;59475;52.464;13.590;2022-07-06T15:01:03;21.74;39.16
71627;DHT22;59475;52.464;13.590;2022-07-06T15:03:29;21.51;39.51
71627;DHT22;59475;52.464;13.590;2022-07-06T15:05:54;21.13;41.01
71627;DHT22;59475;52.464;13.590;2022-07-06T15:08:20;21.32;40.97
71627;DHT22;59475;52.464;13.590;2022-07-06T15:10:45;21.15;41.50
71627;DHT22;59475;52.464;13.590;2022-07-06T15:13:11;20.84;42.46
71627;DHT22;59475;52.464;13.590;2022-07-06T15:15:37;20.96;42.39
71627;DHT22;59475;52.464;13.590;2022-07-06T15:18:03;21.08;42.35